sensor_id;sensor_type;location;lat;lon;timestamp;P1;P2;P0
74880;PMS5003;63427;49.654;6.596;2023-03-03T00:00:13;36;36;
74880;PMS5003;63427;49.654;6.596;2023-03-03T00:02:38;36;33;
74880;PMS5003;63427;49.654;6.596;2023-03-03T00:05:04;30;30;
74880;PMS5003;63427;49.654;6.596;2023-03-03T00:07:29;35;33;
74880;PMS5003;63427;49.654;6.596;2023-03-03T00:09:54;36;33;
74880;PMS5003;63427;49.654;6.596;2023-03-03T00:12:20;35;30;
74880;PMS5003;63427;49.654;6.596;2023-03-03T00:14:45;33;32;
74880;PMS5003;63427;49.654;6.596;2023-03-03T00:17:12;32;30;
74880;PMS5003;63427;49.654;6.596;2023-03-03T00:19:37;35;35;
74880;PMS5003;63427;49.654;6.596;2023-03-03T00:22:06;37;36;
74880;PMS5003;63427;49.654;6.596;2023-03-03T00:24:31;36;32;
74880;PMS5003;63427;49.654;6.596;2023-03-03T00:26:54;38;36;
74880;PMS5003;63427;49.654;6.596;2023-03-03T00:29:26;33;33;
74880;PMS5003;63427;49.654;6.596;2023-03-03T00:31:44;36;31;
74880;PMS5003;63427;49.654;6.596;2023-03-03T00:34:19;46;43;
74880;PMS5003;63427;49.654;6.596;2023-03-03T00:36:35;35;32;
74880;PMS5003;63427;49.654;6.596;2023-03-03T00:41:26;40;38;
74880;PMS5003;63427;49.654;6.596;2023-03-03T00:43:52;41;40;
74880;PMS5003;63427;49.654;6.596;2023-03-03T00:46:17;36;32;
74880;PMS5003;63427;49.654;6.596;2023-03-03T00:48:42;35;34;
74880;PMS5003;63427;49.654;6.596;2023-03-03T00:51:09;26;25;
74880;PMS5003;63427;49.654;6.596;2023-03-03T00:53:33;25;24;
74880;PMS5003;63427;49.654;6.596;2023-03-03T00:55:58;31;30;
74880;PMS5003;63427;49.654;6.596;2023-03-03T00:58:24;38;36;
74880;PMS5003;63427;49.654;6.596;2023-03-03T01:00:50;36;35;
74880;PMS5003;63427;49.654;6.596;2023-03-03T01:03:16;31;30;
74880;PMS5003;63427;49.654;6.596;2023-03-03T01:05:40;35;34;
74880;PMS5003;63427;49.654;6.596;2023-03-03T01:08:06;35;34;
74880;PMS5003;63427;49.654;6.596;2023-03-03T01:10:31;40;39;
74880;PMS5003;63427;49.654;6.596;2023-03-03T01:12:56;38;33;
74880;PMS5003;63427;49.654;6.596;2023-03-03T01:15:21;41;41;
74880;PMS5003;63427;49.654;6.596;2023-03-03T01:17:46;33;30;
74880;PMS5003;63427;49.654;6.596;2023-03-03T01:20:13;36;35;
74880;PMS5003;63427;49.654;6.596;2023-03-03T01:22:38;39;35;
74880;PMS5003;63427;49.654;6.596;2023-03-03T01:25:05;38;36;
74880;PMS5003;63427;49.654;6.596;2023-03-03T01:27:29;41;38;
74880;PMS5003;63427;49.654;6.596;2023-03-03T01:29:55;34;33;
74880;PMS5003;63427;49.654;6.596;2023-03-03T01:32:20;41;38;
74880;PMS5003;63427;49.654;6.596;2023-03-03T01:34:46;46;45;
74880;PMS5003;63427;49.654;6.596;2023-03-03T01:37:11;41;39;
74880;PMS5003;63427;49.654;6.596;2023-03-03T01:39:36;36;33;
74880;PMS5003;63427;49.654;6.596;2023-03-03T01:42:01;33;31;
74880;PMS5003;63427;49.654;6.596;2023-03-03T01:44:27;33;31;
74880;PMS5003;63427;49.654;6.596;2023-03-03T01:46:53;34;33;
74880;PMS5003;63427;49.654;6.596;2023-03-03T01:49:19;43;40;
74880;PMS5003;63427;49.654;6.596;2023-03-03T01:51:54;38;38;
74880;PMS5003;63427;49.654;6.596;2023-03-03T01:54:10;33;31;
74880;PMS5003;63427;49.654;6.596;2023-03-03T01:56:35;49;43;
74880;PMS5003;63427;49.654;6.596;2023-03-03T01:59:01;32;32;
74880;PMS5003;63427;49.654;6.596;2023-03-03T02:01:26;35;34;
74880;PMS5003;63427;49.654;6.596;2023-03-03T02:03:51;36;35;
74880;PMS5003;63427;49.654;6.596;2023-03-03T02:06:17;40;36;
74880;PMS5003;63427;49.654;6.596;2023-03-03T02:08:50;43;39;
74880;PMS5003;63427;49.654;6.596;2023-03-03T02:11:07;36;34;
74880;PMS5003;63427;49.654;6.596;2023-03-03T02:13:33;29;28;
74880;PMS5003;63427;49.654;6.596;2023-03-03T02:15:58;35;32;
74880;PMS5003;63427;49.654;6.596;2023-03-03T02:18:23;41;40;
74880;PMS5003;63427;49.654;6.596;2023-03-03T02:20:52;39;38;
74880;PMS5003;63427;49.654;6.596;2023-03-03T02:23:16;35;33;
74880;PMS5003;63427;49.654;6.596;2023-03-03T02:25:41;47;45;
74880;PMS5003;63427;49.654;6.596;2023-03-03T02:28:05;40;39;
74880;PMS5003;63427;49.654;6.596;2023-03-03T02:30:30;39;35;
74880;PMS5003;63427;49.654;6.596;2023-03-03T02:32:56;37;35;
74880;PMS5003;63427;49.654;6.596;2023-03-03T02:35:25;37;35;
74880;PMS5003;63427;49.654;6.596;2023-03-03T02:37:46;38;34;
74880;PMS5003;63427;49.654;6.596;2023-03-03T02:40:12;38;37;
74880;PMS5003;63427;49.654;6.596;2023-03-03T02:42:37;41;37;
74880;PMS5003;63427;49.654;6.596;2023-03-03T02:45:04;33;31;
74880;PMS5003;63427;49.654;6.596;2023-03-03T02:47:28;44;38;
74880;PMS5003;63427;49.654;6.596;2023-03-03T02:49:54;37;36;
74880;PMS5003;63427;49.654;6.596;2023-03-03T02:52:20;41;39;
74880;PMS5003;63427;49.654;6.596;2023-03-03T02:54:45;39;37;
74880;PMS5003;63427;49.654;6.596;2023-03-03T02:57:11;36;36;
74880;PMS5003;63427;49.654;6.596;2023-03-03T02:59:36;38;38;
74880;PMS5003;63427;49.654;6.596;2023-03-03T03:02:02;38;34;
74880;PMS5003;63427;49.654;6.596;2023-03-03T03:04:27;36;34;
74880;PMS5003;63427;49.654;6.596;2023-03-03T03:06:53;47;44;
74880;PMS5003;63427;49.654;6.596;2023-03-03T03:09:19;44;41;
74880;PMS5003;63427;49.654;6.596;2023-03-03T03:11:43;40;36;
74880;PMS5003;63427;49.654;6.596;2023-03-03T03:14:09;33;31;
74880;PMS5003;63427;49.654;6.596;2023-03-03T03:16:34;42;38;
74880;PMS5003;63427;49.654;6.596;2023-03-03T03:19:00;36;33;
74880;PMS5003;63427;49.654;6.596;2023-03-03T03:21:26;35;32;
74880;PMS5003;63427;49.654;6.596;2023-03-03T03:23:50;33;28;
74880;PMS5003;63427;49.654;6.596;2023-03-03T03:26:15;32;30;
74880;PMS5003;63427;49.654;6.596;2023-03-03T03:28:41;35;33;
74880;PMS5003;63427;49.654;6.596;2023-03-03T03:31:08;32;32;
74880;PMS5003;63427;49.654;6.596;2023-03-03T03:33:32;31;28;
74880;PMS5003;63427;49.654;6.596;2023-03-03T03:35:58;36;35;
74880;PMS5003;63427;49.654;6.596;2023-03-03T03:38:23;32;31;
74880;PMS5003;63427;49.654;6.596;2023-03-03T03:40:48;34;34;
74880;PMS5003;63427;49.654;6.596;2023-03-03T03:43:13;37;36;
74880;PMS5003;63427;49.654;6.596;2023-03-03T03:45:40;33;30;
74880;PMS5003;63427;49.654;6.596;2023-03-03T03:48:05;36;34;
74880;PMS5003;63427;49.654;6.596;2023-03-03T03:50:30;34;32;
74880;PMS5003;63427;49.654;6.596;2023-03-03T03:52:55;34;34;
74880;PMS5003;63427;49.654;6.596;2023-03-03T03:55:21;39;38;
74880;PMS5003;63427;49.654;6.596;2023-03-03T03:57:47;35;32;
74880;PMS5003;63427;49.654;6.596;2023-03-03T04:00:13;32;31;
74880;PMS5003;63427;49.654;6.596;2023-03-03T04:02:38;30;27;
74880;PMS5003;63427;49.654;6.596;2023-03-03T04:05:04;34;34;
74880;PMS5003;63427;49.654;6.596;2023-03-03T04:07:29;31;30;
74880;PMS5003;63427;49.654;6.596;2023-03-03T04:09:55;32;31;
74880;PMS5003;63427;49.654;6.596;2023-03-03T04:12:20;34;34;
74880;PMS5003;63427;49.654;6.596;2023-03-03T04:14:46;36;33;
74880;PMS5003;63427;49.654;6.596;2023-03-03T04:17:14;32;29;
74880;PMS5003;63427;49.654;6.596;2023-03-03T04:19:38;29;26;
74880;PMS5003;63427;49.654;6.596;2023-03-03T04:22:04;39;35;
74880;PMS5003;63427;49.654;6.596;2023-03-03T04:24:29;34;33;
74880;PMS5003;63427;49.654;6.596;2023-03-03T04:26:55;40;38;
74880;PMS5003;63427;49.654;6.596;2023-03-03T04:29:21;35;34;
74880;PMS5003;63427;49.654;6.596;2023-03-03T04:31:46;31;31;
74880;PMS5003;63427;49.654;6.596;2023-03-03T04:34:11;38;35;
74880;PMS5003;63427;49.654;6.596;2023-03-03T04:36:37;33;31;
74880;PMS5003;63427;49.654;6.596;2023-03-03T04:39:02;39;31;
74880;PMS5003;63427;49.654;6.596;2023-03-03T04:41:27;31;30;
74880;PMS5003;63427;49.654;6.596;2023-03-03T04:43:52;35;34;
74880;PMS5003;63427;49.654;6.596;2023-03-03T04:46:18;28;28;
74880;PMS5003;63427;49.654;6.596;2023-03-03T04:48:44;34;34;
74880;PMS5003;63427;49.654;6.596;2023-03-03T04:51:09;38;37;
74880;PMS5003;63427;49.654;6.596;2023-03-03T04:53:34;33;30;
74880;PMS5003;63427;49.654;6.596;2023-03-03T04:56:00;37;35;
74880;PMS5003;63427;49.654;6.596;2023-03-03T04:58:25;33;33;
74880;PMS5003;63427;49.654;6.596;2023-03-03T05:00:52;38;35;
74880;PMS5003;63427;49.654;6.596;2023-03-03T05:03:15;33;32;
74880;PMS5003;63427;49.654;6.596;2023-03-03T05:05:41;37;33;
74880;PMS5003;63427;49.654;6.596;2023-03-03T05:08:07;33;32;
74880;PMS5003;63427;49.654;6.596;2023-03-03T05:10:32;35;34;
74880;PMS5003;63427;49.654;6.596;2023-03-03T05:12:57;40;37;
74880;PMS5003;63427;49.654;6.596;2023-03-03T05:15:22;34;33;
74880;PMS5003;63427;49.654;6.596;2023-03-03T05:17:47;34;30;
74880;PMS5003;63427;49.654;6.596;2023-03-03T05:20:12;79;73;
74880;PMS5003;63427;49.654;6.596;2023-03-03T05:22:38;73;60;
74880;PMS5003;63427;49.654;6.596;2023-03-03T05:25:04;47;46;
74880;PMS5003;63427;49.654;6.596;2023-03-03T05:27:29;50;42;
74880;PMS5003;63427;49.654;6.596;2023-03-03T05:29:54;38;34;
74880;PMS5003;63427;49.654;6.596;2023-03-03T05:32:19;35;34;
74880;PMS5003;63427;49.654;6.596;2023-03-03T05:34:45;32;31;
74880;PMS5003;63427;49.654;6.596;2023-03-03T05:37:10;36;31;
74880;PMS5003;63427;49.654;6.596;2023-03-03T05:39:35;34;32;
74880;PMS5003;63427;49.654;6.596;2023-03-03T05:42:01;52;51;
74880;PMS5003;63427;49.654;6.596;2023-03-03T05:44:26;40;37;
74880;PMS5003;63427;49.654;6.596;2023-03-03T05:46:52;46;41;
74880;PMS5003;63427;49.654;6.596;2023-03-03T05:49:17;45;41;
74880;PMS5003;63427;49.654;6.596;2023-03-03T05:51:42;36;32;
74880;PMS5003;63427;49.654;6.596;2023-03-03T05:54:08;38;36;
74880;PMS5003;63427;49.654;6.596;2023-03-03T05:56:33;41;40;
74880;PMS5003;63427;49.654;6.596;2023-03-03T05:58:58;43;41;
74880;PMS5003;63427;49.654;6.596;2023-03-03T06:01:23;59;51;
74880;PMS5003;63427;49.654;6.596;2023-03-03T06:03:48;47;45;
74880;PMS5003;63427;49.654;6.596;2023-03-03T06:06:14;45;42;
74880;PMS5003;63427;49.654;6.596;2023-03-03T06:08:39;46;44;
74880;PMS5003;63427;49.654;6.596;2023-03-03T06:11:05;44;41;
74880;PMS5003;63427;49.654;6.596;2023-03-03T06:13:30;40;37;
74880;PMS5003;63427;49.654;6.596;2023-03-03T06:15:55;51;47;
74880;PMS5003;63427;49.654;6.596;2023-03-03T06:18:21;40;37;
74880;PMS5003;63427;49.654;6.596;2023-03-03T06:20:49;44;41;
74880;PMS5003;63427;49.654;6.596;2023-03-03T06:23:12;46;44;
74880;PMS5003;63427;49.654;6.596;2023-03-03T06:25:37;47;45;
74880;PMS5003;63427;49.654;6.596;2023-03-03T06:28:02;41;40;
74880;PMS5003;63427;49.654;6.596;2023-03-03T06:30:28;57;53;
74880;PMS5003;63427;49.654;6.596;2023-03-03T06:32:58;46;45;
74880;PMS5003;63427;49.654;6.596;2023-03-03T06:35:19;57;53;
74880;PMS5003;63427;49.654;6.596;2023-03-03T06:37:45;55;50;
74880;PMS5003;63427;49.654;6.596;2023-03-03T06:40:11;54;51;
74880;PMS5003;63427;49.654;6.596;2023-03-03T06:42:35;44;40;
74880;PMS5003;63427;49.654;6.596;2023-03-03T06:45:00;54;49;
74880;PMS5003;63427;49.654;6.596;2023-03-03T06:47:26;47;44;
74880;PMS5003;63427;49.654;6.596;2023-03-03T06:49:52;40;37;
74880;PMS5003;63427;49.654;6.596;2023-03-03T06:52:18;42;41;
74880;PMS5003;63427;49.654;6.596;2023-03-03T06:54:42;41;40;
74880;PMS5003;63427;49.654;6.596;2023-03-03T06:57:12;45;40;
74880;PMS5003;63427;49.654;6.596;2023-03-03T06:59:33;42;42;
74880;PMS5003;63427;49.654;6.596;2023-03-03T07:01:59;41;40;
74880;PMS5003;63427;49.654;6.596;2023-03-03T07:04:26;43;37;
74880;PMS5003;63427;49.654;6.596;2023-03-03T07:06:49;45;41;
74880;PMS5003;63427;49.654;6.596;2023-03-03T07:09:17;50;49;
74880;PMS5003;63427;49.654;6.596;2023-03-03T07:11:40;58;54;
74880;PMS5003;63427;49.654;6.596;2023-03-03T07:14:07;55;51;
74880;PMS5003;63427;49.654;6.596;2023-03-03T07:16:31;51;48;
74880;PMS5003;63427;49.654;6.596;2023-03-03T07:18:58;52;47;
74880;PMS5003;63427;49.654;6.596;2023-03-03T07:21:27;54;51;
74880;PMS5003;63427;49.654;6.596;2023-03-03T07:23:48;51;47;
74880;PMS5003;63427;49.654;6.596;2023-03-03T07:26:14;47;43;
74880;PMS5003;63427;49.654;6.596;2023-03-03T07:28:40;43;40;
74880;PMS5003;63427;49.654;6.596;2023-03-03T07:31:04;39;39;
74880;PMS5003;63427;49.654;6.596;2023-03-03T07:33:30;43;42;
74880;PMS5003;63427;49.654;6.596;2023-03-03T07:35:56;43;39;
74880;PMS5003;63427;49.654;6.596;2023-03-03T07:38:22;43;41;
74880;PMS5003;63427;49.654;6.596;2023-03-03T07:40:47;47;45;
74880;PMS5003;63427;49.654;6.596;2023-03-03T07:45:37;42;41;
74880;PMS5003;63427;49.654;6.596;2023-03-03T07:48:05;47;46;
74880;PMS5003;63427;49.654;6.596;2023-03-03T07:50:28;48;41;
74880;PMS5003;63427;49.654;6.596;2023-03-03T07:52:54;43;42;
74880;PMS5003;63427;49.654;6.596;2023-03-03T07:55:22;50;47;
74880;PMS5003;63427;49.654;6.596;2023-03-03T07:57:45;51;50;
74880;PMS5003;63427;49.654;6.596;2023-03-03T08:02:38;98;90;
74880;PMS5003;63427;49.654;6.596;2023-03-03T08:05:11;147;133;
74880;PMS5003;63427;49.654;6.596;2023-03-03T08:07:27;110;97;
74880;PMS5003;63427;49.654;6.596;2023-03-03T08:09:55;100;89;
74880;PMS5003;63427;49.654;6.596;2023-03-03T08:12:30;97;92;
74880;PMS5003;63427;49.654;6.596;2023-03-03T08:14:43;144;135;
74880;PMS5003;63427;49.654;6.596;2023-03-03T08:17:12;81;75;
74880;PMS5003;63427;49.654;6.596;2023-03-03T08:19:34;66;57;
74880;PMS5003;63427;49.654;6.596;2023-03-03T08:22:01;70;62;
74880;PMS5003;63427;49.654;6.596;2023-03-03T08:24:25;58;57;
74880;PMS5003;63427;49.654;6.596;2023-03-03T08:26:51;59;54;
74880;PMS5003;63427;49.654;6.596;2023-03-03T08:29:17;56;54;
74880;PMS5003;63427;49.654;6.596;2023-03-03T08:31:42;52;50;
74880;PMS5003;63427;49.654;6.596;2023-03-03T08:34:07;56;51;
74880;PMS5003;63427;49.654;6.596;2023-03-03T08:36:33;50;47;
74880;PMS5003;63427;49.654;6.596;2023-03-03T08:38:58;56;55;
74880;PMS5003;63427;49.654;6.596;2023-03-03T08:41:23;54;49;
74880;PMS5003;63427;49.654;6.596;2023-03-03T08:43:48;59;57;
74880;PMS5003;63427;49.654;6.596;2023-03-03T08:46:13;59;57;
74880;PMS5003;63427;49.654;6.596;2023-03-03T08:48:38;62;58;
74880;PMS5003;63427;49.654;6.596;2023-03-03T08:51:04;77;73;
74880;PMS5003;63427;49.654;6.596;2023-03-03T08:53:29;71;70;
74880;PMS5003;63427;49.654;6.596;2023-03-03T08:55:55;58;55;
74880;PMS5003;63427;49.654;6.596;2023-03-03T08:58:21;63;60;
74880;PMS5003;63427;49.654;6.596;2023-03-03T09:00:46;66;64;
74880;PMS5003;63427;49.654;6.596;2023-03-03T09:03:12;74;73;
74880;PMS5003;63427;49.654;6.596;2023-03-03T09:05:38;62;60;
74880;PMS5003;63427;49.654;6.596;2023-03-03T09:08:02;63;61;
74880;PMS5003;63427;49.654;6.596;2023-03-03T09:10:28;68;65;
74880;PMS5003;63427;49.654;6.596;2023-03-03T09:12:53;66;64;
74880;PMS5003;63427;49.654;6.596;2023-03-03T09:15:20;59;55;
74880;PMS5003;63427;49.654;6.596;2023-03-03T09:17:44;54;51;
74880;PMS5003;63427;49.654;6.596;2023-03-03T09:20:22;57;53;
74880;PMS5003;63427;49.654;6.596;2023-03-03T09:22:35;62;60;
74880;PMS5003;63427;49.654;6.596;2023-03-03T09:25:00;57;55;
74880;PMS5003;63427;49.654;6.596;2023-03-03T09:27:26;62;60;
74880;PMS5003;63427;49.654;6.596;2023-03-03T09:29:51;60;59;
74880;PMS5003;63427;49.654;6.596;2023-03-03T09:32:21;63;62;
74880;PMS5003;63427;49.654;6.596;2023-03-03T09:34:42;66;62;
74880;PMS5003;63427;49.654;6.596;2023-03-03T09:37:14;62;60;
74880;PMS5003;63427;49.654;6.596;2023-03-03T09:39:32;64;61;
74880;PMS5003;63427;49.654;6.596;2023-03-03T09:42:05;60;60;
74880;PMS5003;63427;49.654;6.596;2023-03-03T09:44:28;64;61;
74880;PMS5003;63427;49.654;6.596;2023-03-03T09:46:53;53;52;
74880;PMS5003;63427;49.654;6.596;2023-03-03T09:49:17;95;92;
74880;PMS5003;63427;49.654;6.596;2023-03-03T09:51:50;68;66;
74880;PMS5003;63427;49.654;6.596;2023-03-03T09:54:10;69;67;
74880;PMS5003;63427;49.654;6.596;2023-03-03T09:56:32;65;64;
74880;PMS5003;63427;49.654;6.596;2023-03-03T09:59:00;68;66;
74880;PMS5003;63427;49.654;6.596;2023-03-03T10:01:30;59;58;
74880;PMS5003;63427;49.654;6.596;2023-03-03T10:03:53;61;59;
74880;PMS5003;63427;49.654;6.596;2023-03-03T10:06:16;69;67;
74880;PMS5003;63427;49.654;6.596;2023-03-03T10:08:43;66;62;
74880;PMS5003;63427;49.654;6.596;2023-03-03T10:11:09;68;66;
74880;PMS5003;63427;49.654;6.596;2023-03-03T10:13:34;96;92;
74880;PMS5003;63427;49.654;6.596;2023-03-03T10:16:01;75;75;
74880;PMS5003;63427;49.654;6.596;2023-03-03T10:18:27;74;72;
74880;PMS5003;63427;49.654;6.596;2023-03-03T10:20:53;56;55;
74880;PMS5003;63427;49.654;6.596;2023-03-03T10:23:16;81;79;
74880;PMS5003;63427;49.654;6.596;2023-03-03T10:25:37;66;65;
74880;PMS5003;63427;49.654;6.596;2023-03-03T10:28:05;96;92;
74880;PMS5003;63427;49.654;6.596;2023-03-03T10:30:32;68;64;
74880;PMS5003;63427;49.654;6.596;2023-03-03T10:32:55;83;80;
74880;PMS5003;63427;49.654;6.596;2023-03-03T10:35:23;69;68;
74880;PMS5003;63427;49.654;6.596;2023-03-03T10:37:47;81;76;
74880;PMS5003;63427;49.654;6.596;2023-03-03T10:40:14;62;60;
74880;PMS5003;63427;49.654;6.596;2023-03-03T10:42:45;58;56;
74880;PMS5003;63427;49.654;6.596;2023-03-03T10:45:06;70;70;
74880;PMS5003;63427;49.654;6.596;2023-03-03T10:47:30;70;68;
74880;PMS5003;63427;49.654;6.596;2023-03-03T10:49:55;60;59;
74880;PMS5003;63427;49.654;6.596;2023-03-03T10:52:23;67;67;
74880;PMS5003;63427;49.654;6.596;2023-03-03T10:54:48;85;81;
74880;PMS5003;63427;49.654;6.596;2023-03-03T10:57:10;66;64;
74880;PMS5003;63427;49.654;6.596;2023-03-03T10:59:38;64;61;
74880;PMS5003;63427;49.654;6.596;2023-03-03T11:02:00;67;66;
74880;PMS5003;63427;49.654;6.596;2023-03-03T11:04:29;73;71;
74880;PMS5003;63427;49.654;6.596;2023-03-03T11:06:51;66;64;
74880;PMS5003;63427;49.654;6.596;2023-03-03T11:09:19;69;66;
74880;PMS5003;63427;49.654;6.596;2023-03-03T11:11:41;71;67;
74880;PMS5003;63427;49.654;6.596;2023-03-03T11:14:08;93;90;
74880;PMS5003;63427;49.654;6.596;2023-03-03T11:16:37;63;61;
74880;PMS5003;63427;49.654;6.596;2023-03-03T11:19:01;60;59;
74880;PMS5003;63427;49.654;6.596;2023-03-03T11:21:22;69;67;
74880;PMS5003;63427;49.654;6.596;2023-03-03T11:23:51;68;65;
74880;PMS5003;63427;49.654;6.596;2023-03-03T11:26:14;70;68;
74880;PMS5003;63427;49.654;6.596;2023-03-03T11:28:43;72;68;
74880;PMS5003;63427;49.654;6.596;2023-03-03T11:31:06;69;68;
74880;PMS5003;63427;49.654;6.596;2023-03-03T11:33:31;77;75;
74880;PMS5003;63427;49.654;6.596;2023-03-03T11:35:57;59;56;
74880;PMS5003;63427;49.654;6.596;2023-03-03T11:38:24;64;63;
74880;PMS5003;63427;49.654;6.596;2023-03-03T11:40:46;64;62;
74880;PMS5003;63427;49.654;6.596;2023-03-03T11:43:12;69;69;
74880;PMS5003;63427;49.654;6.596;2023-03-03T11:45:37;88;86;
74880;PMS5003;63427;49.654;6.596;2023-03-03T11:48:04;57;55;
74880;PMS5003;63427;49.654;6.596;2023-03-03T11:50:28;81;79;
74880;PMS5003;63427;49.654;6.596;2023-03-03T11:52:53;57;56;
74880;PMS5003;63427;49.654;6.596;2023-03-03T11:55:19;62;60;
74880;PMS5003;63427;49.654;6.596;2023-03-03T11:57:44;58;55;
74880;PMS5003;63427;49.654;6.596;2023-03-03T12:05:03;56;55;
74880;PMS5003;63427;49.654;6.596;2023-03-03T12:07:27;45;45;
74880;PMS5003;63427;49.654;6.596;2023-03-03T12:09:54;51;48;
74880;PMS5003;63427;49.654;6.596;2023-03-03T12:12:16;51;50;
74880;PMS5003;63427;49.654;6.596;2023-03-03T12:14:48;51;49;
74880;PMS5003;63427;49.654;6.596;2023-03-03T12:17:09;54;52;
74880;PMS5003;63427;49.654;6.596;2023-03-03T12:19:34;52;50;
74880;PMS5003;63427;49.654;6.596;2023-03-03T12:22:02;53;52;
74880;PMS5003;63427;49.654;6.596;2023-03-03T12:24:27;54;52;
74880;PMS5003;63427;49.654;6.596;2023-03-03T12:26:49;46;44;
74880;PMS5003;63427;49.654;6.596;2023-03-03T12:29:18;56;54;
74880;PMS5003;63427;49.654;6.596;2023-03-03T12:31:42;48;47;
74880;PMS5003;63427;49.654;6.596;2023-03-03T12:34:07;46;44;
74880;PMS5003;63427;49.654;6.596;2023-03-03T12:36:34;51;49;
74880;PMS5003;63427;49.654;6.596;2023-03-03T12:38:55;54;50;
74880;PMS5003;63427;49.654;6.596;2023-03-03T12:41:20;53;52;
74880;PMS5003;63427;49.654;6.596;2023-03-03T12:43:49;60;59;
74880;PMS5003;63427;49.654;6.596;2023-03-03T12:46:13;59;59;
74880;PMS5003;63427;49.654;6.596;2023-03-03T12:48:37;53;51;
74880;PMS5003;63427;49.654;6.596;2023-03-03T12:51:03;53;50;
74880;PMS5003;63427;49.654;6.596;2023-03-03T12:53:31;46;46;
74880;PMS5003;63427;49.654;6.596;2023-03-03T12:55:54;52;51;
74880;PMS5003;63427;49.654;6.596;2023-03-03T12:58:22;46;45;
74880;PMS5003;63427;49.654;6.596;2023-03-03T13:00:47;44;44;
74880;PMS5003;63427;49.654;6.596;2023-03-03T13:03:12;46;46;
74880;PMS5003;63427;49.654;6.596;2023-03-03T13:05:40;40;39;
74880;PMS5003;63427;49.654;6.596;2023-03-03T13:08:06;46;44;
74880;PMS5003;63427;49.654;6.596;2023-03-03T13:10:26;36;36;
74880;PMS5003;63427;49.654;6.596;2023-03-03T13:12:52;50;48;
74880;PMS5003;63427;49.654;6.596;2023-03-03T13:15:19;49;48;
74880;PMS5003;63427;49.654;6.596;2023-03-03T13:17:44;41;38;
74880;PMS5003;63427;49.654;6.596;2023-03-03T13:20:11;39;38;
74880;PMS5003;63427;49.654;6.596;2023-03-03T13:22:36;33;33;
74880;PMS5003;63427;49.654;6.596;2023-03-03T13:25:01;40;39;
74880;PMS5003;63427;49.654;6.596;2023-03-03T13:27:26;36;36;
74880;PMS5003;63427;49.654;6.596;2023-03-03T13:29:53;42;39;
74880;PMS5003;63427;49.654;6.596;2023-03-03T13:32:16;34;33;
74880;PMS5003;63427;49.654;6.596;2023-03-03T13:34:42;29;28;
74880;PMS5003;63427;49.654;6.596;2023-03-03T13:37:07;40;39;
74880;PMS5003;63427;49.654;6.596;2023-03-03T13:39:32;32;31;
74880;PMS5003;63427;49.654;6.596;2023-03-03T13:41:58;32;32;
74880;PMS5003;63427;49.654;6.596;2023-03-03T13:44:23;40;39;
74880;PMS5003;63427;49.654;6.596;2023-03-03T13:46:51;33;31;
74880;PMS5003;63427;49.654;6.596;2023-03-03T13:49:17;35;34;
74880;PMS5003;63427;49.654;6.596;2023-03-03T13:51:41;30;30;
74880;PMS5003;63427;49.654;6.596;2023-03-03T13:54:06;31;30;
74880;PMS5003;63427;49.654;6.596;2023-03-03T13:56:33;33;31;
74880;PMS5003;63427;49.654;6.596;2023-03-03T13:58:56;41;40;
74880;PMS5003;63427;49.654;6.596;2023-03-03T14:01:21;38;37;
74880;PMS5003;63427;49.654;6.596;2023-03-03T14:03:50;35;34;
74880;PMS5003;63427;49.654;6.596;2023-03-03T14:06:13;32;32;
74880;PMS5003;63427;49.654;6.596;2023-03-03T14:08:41;30;29;
74880;PMS5003;63427;49.654;6.596;2023-03-03T14:11:06;36;34;
74880;PMS5003;63427;49.654;6.596;2023-03-03T14:13:27;30;29;
74880;PMS5003;63427;49.654;6.596;2023-03-03T14:15:53;31;31;
74880;PMS5003;63427;49.654;6.596;2023-03-03T14:18:20;29;28;
74880;PMS5003;63427;49.654;6.596;2023-03-03T14:20:43;26;25;
74880;PMS5003;63427;49.654;6.596;2023-03-03T14:23:09;30;27;
74880;PMS5003;63427;49.654;6.596;2023-03-03T14:28:01;27;26;
74880;PMS5003;63427;49.654;6.596;2023-03-03T14:30:26;25;24;
74880;PMS5003;63427;49.654;6.596;2023-03-03T14:35:20;26;25;
74880;PMS5003;63427;49.654;6.596;2023-03-03T14:37:41;28;26;
74880;PMS5003;63427;49.654;6.596;2023-03-03T14:40:12;28;27;
74880;PMS5003;63427;49.654;6.596;2023-03-03T14:42:33;21;20;
74880;PMS5003;63427;49.654;6.596;2023-03-03T14:44:57;23;22;
74880;PMS5003;63427;49.654;6.596;2023-03-03T14:47:22;28;26;
74880;PMS5003;63427;49.654;6.596;2023-03-03T14:49:48;31;30;
74880;PMS5003;63427;49.654;6.596;2023-03-03T14:52:19;23;23;
74880;PMS5003;63427;49.654;6.596;2023-03-03T14:54:39;26;24;
74880;PMS5003;63427;49.654;6.596;2023-03-03T14:57:06;32;31;
74880;PMS5003;63427;49.654;6.596;2023-03-03T14:59:29;31;30;
74880;PMS5003;63427;49.654;6.596;2023-03-03T15:01:56;31;29;
74880;PMS5003;63427;49.654;6.596;2023-03-03T15:04:23;26;25;
74880;PMS5003;63427;49.654;6.596;2023-03-03T15:06:45;28;27;
74880;PMS5003;63427;49.654;6.596;2023-03-03T15:11:35;26;26;
74880;PMS5003;63427;49.654;6.596;2023-03-03T15:16:30;29;29;
74880;PMS5003;63427;49.654;6.596;2023-03-03T15:18:54;33;31;
74880;PMS5003;63427;49.654;6.596;2023-03-03T15:21:17;35;34;
74880;PMS5003;63427;49.654;6.596;2023-03-03T15:23:46;35;35;
74880;PMS5003;63427;49.654;6.596;2023-03-03T15:26:08;33;33;
74880;PMS5003;63427;49.654;6.596;2023-03-03T15:31:00;28;28;
74880;PMS5003;63427;49.654;6.596;2023-03-03T15:33:26;30;30;
74880;PMS5003;63427;49.654;6.596;2023-03-03T15:35:50;32;31;
74880;PMS5003;63427;49.654;6.596;2023-03-03T15:38:18;34;34;
74880;PMS5003;63427;49.654;6.596;2023-03-03T15:40:42;36;36;
74880;PMS5003;63427;49.654;6.596;2023-03-03T15:43:12;34;34;
74880;PMS5003;63427;49.654;6.596;2023-03-03T15:45:32;30;30;
74880;PMS5003;63427;49.654;6.596;2023-03-03T15:48:02;36;36;
74880;PMS5003;63427;49.654;6.596;2023-03-03T15:50:25;31;30;
74880;PMS5003;63427;49.654;6.596;2023-03-03T15:52:50;30;30;
74880;PMS5003;63427;49.654;6.596;2023-03-03T15:55:18;34;31;
74880;PMS5003;63427;49.654;6.596;2023-03-03T15:57:41;29;27;
74880;PMS5003;63427;49.654;6.596;2023-03-03T16:00:14;35;32;
74880;PMS5003;63427;49.654;6.596;2023-03-03T16:02:34;35;34;
74880;PMS5003;63427;49.654;6.596;2023-03-03T16:04:57;29;26;
74880;PMS5003;63427;49.654;6.596;2023-03-03T16:07:24;32;31;
74880;PMS5003;63427;49.654;6.596;2023-03-03T16:09:48;31;28;
74880;PMS5003;63427;49.654;6.596;2023-03-03T16:12:13;30;28;
74880;PMS5003;63427;49.654;6.596;2023-03-03T16:14:42;31;30;
74880;PMS5003;63427;49.654;6.596;2023-03-03T16:17:05;26;25;
74880;PMS5003;63427;49.654;6.596;2023-03-03T16:19:32;23;23;
74880;PMS5003;63427;49.654;6.596;2023-03-03T16:22:01;29;29;
74880;PMS5003;63427;49.654;6.596;2023-03-03T16:24:22;26;26;
74880;PMS5003;63427;49.654;6.596;2023-03-03T16:26:45;31;30;